Weather at Bingham Airport

Public forecast

Using degrees Fahrenheit for public forecast. Weather courtesy of forecast.io.

Closest aviation weather report (METAR) to Bingham Airport

Closest report is Burlington Municipal Airport, 17.1 nm (31.7 km) NNE. Retrieved 2021/06/23 03:15 UTC (16 minutes ago):

KBUU 230315Z AUTO 00000KT 10SM 16/10 A2998 RMK AO2 T01550097 PWINO

Closest aviation forecast (TAF) to Bingham Airport

Closest forecast is Kenosha Regional Airport, 26.5 nm (49.1 km) ENE. Retrieved 2021-06-23 00:33 UTC (3 hours ago):

TAF KENW 222330Z 2300/2324 VRB05KT P6SM BKN080 TEMPO 2300/2302 16005KT SCT080 FM230700 15008KT P6SM VCSH BKN070 FM231200 18009KT P6SM VCSH BKN050 TEMPO 2312/2316 4SM -SHRA BKN030 FM231800 20014G24KT P6SM BKN080